createdAt,value
2019-04-03T00:00:44.479Z,954.47
2019-04-03T00:01:44.426Z,954.37
2019-04-03T00:02:44.412Z,954.39
2019-04-03T00:03:44.404Z,954.36
2019-04-03T00:04:44.395Z,954.34
2019-04-03T00:05:44.425Z,954.33
2019-04-03T00:06:44.401Z,954.36
2019-04-03T00:07:44.359Z,954.35
2019-04-03T00:08:44.351Z,954.37
2019-04-03T00:09:44.451Z,954.31
2019-04-03T00:10:44.339Z,954.33
2019-04-03T00:11:44.362Z,954.36
2019-04-03T00:12:44.329Z,954.30
2019-04-03T00:13:44.357Z,954.33
2019-04-03T00:14:44.282Z,954.29
2019-04-03T00:15:44.763Z,954.28
2019-04-03T00:16:45.487Z,954.28
2019-04-03T00:17:45.982Z,954.23
2019-04-03T00:18:46.783Z,954.27
2019-04-03T00:19:45.773Z,954.25
2019-04-03T00:20:44.217Z,954.22
2019-04-03T00:21:44.205Z,954.23
2019-04-03T00:22:46.078Z,954.24
2019-04-03T00:23:44.220Z,954.23
2019-04-03T00:24:44.225Z,954.24
2019-04-03T00:25:44.163Z,954.20
2019-04-03T00:26:44.147Z,954.23
2019-04-03T00:27:44.140Z,954.19
2019-04-03T00:28:44.149Z,954.22
2019-04-03T00:29:44.143Z,954.21
2019-04-03T00:30:44.108Z,954.25
2019-04-03T00:31:44.092Z,954.21
2019-04-03T00:32:44.079Z,954.22
2019-04-03T00:33:44.096Z,954.20
2019-04-03T00:34:44.179Z,954.18
2019-04-03T00:35:44.080Z,954.16
2019-04-03T00:36:44.045Z,954.19
2019-04-03T00:37:44.030Z,954.24
2019-04-03T00:38:44.039Z,954.22
2019-04-03T00:39:44.015Z,954.19
2019-04-03T00:40:44.009Z,954.21
2019-04-03T00:41:44.002Z,954.19
2019-04-03T00:42:43.991Z,954.22
2019-04-03T00:43:43.959Z,954.19
2019-04-03T00:44:43.958Z,954.20
2019-04-03T00:45:43.948Z,954.21
2019-04-03T00:46:43.958Z,954.25
2019-04-03T00:47:43.922Z,954.25
2019-04-03T00:48:43.994Z,954.24
2019-04-03T00:49:43.917Z,954.21
2019-04-03T00:50:43.886Z,954.20
2019-04-03T00:51:43.893Z,954.22
2019-04-03T00:52:43.877Z,954.20
2019-04-03T00:53:43.875Z,954.21
2019-04-03T00:54:43.845Z,954.23
2019-04-03T00:55:43.840Z,954.22
2019-04-03T00:56:43.823Z,954.20
2019-04-03T00:57:43.812Z,954.23
2019-04-03T00:58:43.805Z,954.20
2019-04-03T00:59:43.792Z,954.26
2019-04-03T01:00:43.824Z,954.25
2019-04-03T01:01:43.762Z,954.24
2019-04-03T01:02:43.958Z,954.23
2019-04-03T01:03:43.747Z,954.24
2019-04-03T01:04:43.752Z,954.27
2019-04-03T01:05:43.846Z,954.30
2019-04-03T01:06:43.718Z,954.26
2019-04-03T01:07:43.692Z,954.30
2019-04-03T01:08:43.707Z,954.33
2019-04-03T01:09:43.685Z,954.25
2019-04-03T01:10:43.681Z,954.21
2019-04-03T01:11:43.699Z,954.23
2019-04-03T01:12:43.699Z,954.20
2019-04-03T01:13:43.632Z,954.23
2019-04-03T01:14:43.682Z,954.20
2019-04-03T01:15:43.631Z,954.19
2019-04-03T01:16:43.712Z,954.09
2019-04-03T01:17:43.594Z,954.13
2019-04-03T01:18:43.572Z,954.09
2019-04-03T01:19:43.561Z,954.07
2019-04-03T01:20:43.570Z,954.12
2019-04-03T01:21:43.555Z,954.08
2019-04-03T01:22:43.534Z,954.12
2019-04-03T01:23:43.530Z,954.07
2019-04-03T01:24:43.508Z,954.06
2019-04-03T01:25:43.507Z,954.05
2019-04-03T01:26:43.507Z,953.97
2019-04-03T01:27:43.517Z,954.03
2019-04-03T01:28:43.462Z,953.96
2019-04-03T01:29:43.450Z,954.00
2019-04-03T01:30:44.216Z,953.92
2019-04-03T01:31:44.905Z,953.91
2019-04-03T01:32:46.129Z,953.89
2019-04-03T01:33:46.079Z,953.86
2019-04-03T01:34:43.393Z,953.96
2019-04-03T01:35:43.381Z,953.89
2019-04-03T01:36:43.506Z,953.87
2019-04-03T01:37:43.372Z,953.86
2019-04-03T01:38:43.487Z,953.87
2019-04-03T01:39:44.079Z,953.80
2019-04-03T01:40:43.329Z,953.86
2019-04-03T01:41:43.442Z,953.79
2019-04-03T01:42:43.337Z,953.79
2019-04-03T01:43:43.319Z,953.79
2019-04-03T01:44:43.319Z,953.75
2019-04-03T01:45:43.316Z,953.70
2019-04-03T01:46:43.347Z,953.71
2019-04-03T01:47:43.305Z,953.71
2019-04-03T01:48:43.236Z,953.69
2019-04-03T01:49:43.255Z,953.71
2019-04-03T01:50:43.251Z,953.70
2019-04-03T01:51:43.238Z,953.71
2019-04-03T01:52:43.323Z,953.70
2019-04-03T01:53:43.183Z,953.64
2019-04-03T01:54:43.171Z,953.61
2019-04-03T01:55:43.189Z,953.63
2019-04-03T01:56:43.174Z,953.61
2019-04-03T01:57:43.168Z,953.65
2019-04-03T01:58:43.122Z,953.60
2019-04-03T01:59:43.114Z,953.56
2019-04-03T02:00:43.153Z,953.60
2019-04-03T02:01:43.104Z,953.57
2019-04-03T02:02:43.098Z,953.58
2019-04-03T02:03:43.103Z,953.61
2019-04-03T02:04:43.124Z,953.57
2019-04-03T02:05:43.830Z,953.58
2019-04-03T02:06:43.894Z,953.49
2019-04-03T02:07:44.711Z,953.52
2019-04-03T02:08:44.885Z,953.50
2019-04-03T02:09:43.037Z,953.55
2019-04-03T02:10:43.174Z,953.49
2019-04-03T02:11:42.987Z,953.47
2019-04-03T02:12:43.014Z,953.48
2019-04-03T02:13:42.990Z,953.47
2019-04-03T02:14:43.173Z,953.49
2019-04-03T02:15:42.981Z,953.43
2019-04-03T02:16:42.925Z,953.46
2019-04-03T02:17:42.912Z,953.49
2019-04-03T02:18:42.910Z,953.47
2019-04-03T02:19:42.916Z,953.48
2019-04-03T02:20:42.969Z,953.44
2019-04-03T02:21:42.885Z,953.44
2019-04-03T02:22:42.858Z,953.42
2019-04-03T02:23:42.846Z,953.45
2019-04-03T02:24:42.879Z,953.40
2019-04-03T02:25:42.836Z,953.43
2019-04-03T02:26:42.866Z,953.36
2019-04-03T02:27:43.573Z,953.37
2019-04-03T02:28:42.794Z,953.37
2019-04-03T02:29:42.798Z,953.35
2019-04-03T02:30:46.005Z,953.39
2019-04-03T02:31:43.191Z,953.32
2019-04-03T02:32:42.745Z,953.33
2019-04-03T02:33:42.787Z,953.36
2019-04-03T02:34:43.020Z,953.34
2019-04-03T02:35:42.737Z,953.40
2019-04-03T02:36:44.270Z,953.36
2019-04-03T02:37:43.095Z,953.37
2019-04-03T02:38:42.678Z,953.37
2019-04-03T02:39:42.681Z,953.38
2019-04-03T02:40:42.659Z,953.38
2019-04-03T02:41:42.679Z,953.31
2019-04-03T02:42:42.678Z,953.31
2019-04-03T02:43:45.381Z,953.33
2019-04-03T02:44:42.622Z,953.30
2019-04-03T02:45:42.719Z,953.30
2019-04-03T02:46:42.617Z,953.32
2019-04-03T02:47:42.598Z,953.32
2019-04-03T02:48:42.581Z,953.37
2019-04-03T02:49:43.634Z,953.34
2019-04-03T02:50:46.655Z,953.37
2019-04-03T02:51:42.620Z,953.39
2019-04-03T02:52:42.548Z,953.39
2019-04-03T02:53:42.521Z,953.43
2019-04-03T02:54:42.521Z,953.44
2019-04-03T02:55:42.500Z,953.49
2019-04-03T02:56:44.462Z,953.44
2019-04-03T02:57:42.478Z,953.46
2019-04-03T02:58:42.553Z,953.48
2019-04-03T02:59:42.480Z,953.43
2019-04-03T03:00:42.460Z,953.44
2019-04-03T03:01:42.750Z,953.43
2019-04-03T03:02:45.417Z,953.44
2019-04-03T03:03:42.400Z,953.43
2019-04-03T03:04:42.412Z,953.46
2019-04-03T03:05:42.396Z,953.45
2019-04-03T03:06:42.602Z,953.46
2019-04-03T03:07:42.357Z,953.44
2019-04-03T03:08:42.729Z,953.43
2019-04-03T03:09:45.925Z,953.45
2019-04-03T03:10:42.337Z,953.43
2019-04-03T03:11:42.335Z,953.44
2019-04-03T03:12:42.306Z,953.42
2019-04-03T03:13:42.307Z,953.38
2019-04-03T03:14:42.282Z,953.42
2019-04-03T03:15:43.926Z,953.42
2019-04-03T03:16:42.268Z,953.37
2019-04-03T03:17:42.278Z,953.40
2019-04-03T03:18:42.235Z,953.40
2019-04-03T03:19:42.235Z,953.42
2019-04-03T03:20:42.222Z,953.43
2019-04-03T03:21:44.740Z,953.38
2019-04-03T03:22:42.294Z,953.37
2019-04-03T03:23:42.215Z,953.38
2019-04-03T03:24:42.209Z,953.35
2019-04-03T03:25:42.373Z,953.35
2019-04-03T03:26:42.144Z,953.36
2019-04-03T03:27:42.714Z,953.35
2019-04-03T03:28:45.600Z,953.28
2019-04-03T03:29:42.133Z,953.26
2019-04-03T03:30:54.402Z,953.26
2019-04-03T03:32:06.369Z,953.17
2019-04-03T03:32:43.389Z,953.13
2019-04-03T03:33:42.533Z,953.15
2019-04-03T03:34:55.115Z,953.07
2019-04-03T03:35:46.852Z,953.05
2019-04-03T03:36:42.573Z,953.00
2019-04-03T03:37:42.021Z,953.01
2019-04-03T03:38:42.026Z,953.02
2019-04-03T03:39:43.498Z,953.03
2019-04-03T03:40:42.004Z,953.06
2019-04-03T03:41:42.018Z,953.02
2019-04-03T03:42:41.967Z,953.01
2019-04-03T03:43:41.957Z,953.02
2019-04-03T03:44:45.607Z,953.03
2019-04-03T03:45:41.937Z,952.99
2019-04-03T03:46:41.955Z,953.00
2019-04-03T03:47:42.444Z,952.95
2019-04-03T03:48:43.585Z,952.98
2019-04-03T03:49:41.888Z,952.99
2019-04-03T03:50:41.885Z,952.99
2019-04-03T03:51:41.878Z,953.02
2019-04-03T03:52:41.921Z,952.98
2019-04-03T03:53:44.531Z,952.96
2019-04-03T03:54:41.845Z,952.95
2019-04-03T03:55:42.031Z,952.92
2019-04-03T03:56:41.827Z,952.89
2019-04-03T03:57:41.909Z,952.90
2019-04-03T03:58:44.754Z,952.88
2019-04-03T03:59:41.893Z,952.86
2019-04-03T04:00:41.981Z,952.84
2019-04-03T04:01:41.752Z,952.89
2019-04-03T04:02:44.294Z,952.83
2019-04-03T04:03:42.371Z,952.84
2019-04-03T04:04:41.747Z,952.85
2019-04-03T04:05:41.802Z,952.83
2019-04-03T04:06:41.734Z,952.91
2019-04-03T04:07:41.685Z,952.92
2019-04-03T04:08:44.167Z,952.95
2019-04-03T04:09:41.683Z,952.96
2019-04-03T04:10:41.656Z,952.91
2019-04-03T04:11:41.651Z,952.87
2019-04-03T04:12:42.537Z,952.83
2019-04-03T04:13:41.676Z,952.84
2019-04-03T04:14:41.932Z,952.81
2019-04-03T04:15:41.624Z,952.80
2019-04-03T04:16:41.987Z,952.86
2019-04-03T04:17:41.580Z,952.88
2019-04-03T04:18:41.589Z,952.84
2019-04-03T04:19:41.580Z,952.93
2019-04-03T04:20:41.557Z,952.93
2019-04-03T04:21:44.032Z,952.88
2019-04-03T04:22:41.764Z,952.97
2019-04-03T04:23:41.785Z,952.96
2019-04-03T04:24:41.630Z,952.98
2019-04-03T04:25:43.531Z,952.98
2019-04-03T04:26:41.666Z,952.97
2019-04-03T04:27:41.491Z,952.97
2019-04-03T04:28:41.457Z,952.97
2019-04-03T04:29:42.175Z,952.97
2019-04-03T04:30:42.511Z,952.96
2019-04-03T04:31:43.344Z,952.97
2019-04-03T04:32:41.431Z,952.97
2019-04-03T04:33:41.422Z,952.99
2019-04-03T04:34:41.616Z,953.00
2019-04-03T04:35:41.395Z,952.95
2019-04-03T04:36:41.364Z,952.97
2019-04-03T04:37:41.360Z,953.06
2019-04-03T04:38:41.371Z,953.04
2019-04-03T04:39:41.338Z,953.04
2019-04-03T04:40:41.499Z,952.97
2019-04-03T04:41:41.443Z,953.00
2019-04-03T04:42:41.303Z,953.03
2019-04-03T04:43:41.299Z,953.13
2019-04-03T04:44:41.626Z,953.04
2019-04-03T04:45:42.702Z,953.10
2019-04-03T04:46:43.695Z,953.11
2019-04-03T04:47:41.332Z,953.13
2019-04-03T04:48:41.248Z,953.10
2019-04-03T04:49:41.260Z,953.08
2019-04-03T04:50:41.244Z,953.08
2019-04-03T04:51:41.391Z,953.13
2019-04-03T04:52:41.218Z,953.08
2019-04-03T04:53:41.375Z,953.07
2019-04-03T04:54:42.886Z,953.13
2019-04-03T04:55:41.170Z,953.12
2019-04-03T04:56:41.143Z,953.04
2019-04-03T04:57:41.415Z,953.10
2019-04-03T04:58:43.029Z,953.05
2019-04-03T04:59:41.279Z,953.06
2019-04-03T05:00:41.130Z,953.04
2019-04-03T05:01:41.113Z,953.04
2019-04-03T05:02:41.243Z,953.00
2019-04-03T05:03:41.067Z,953.02
2019-04-03T05:04:41.077Z,953.02
2019-04-03T05:05:41.071Z,953.00
2019-04-03T05:06:41.053Z,953.00
2019-04-03T05:07:41.043Z,952.92
2019-04-03T05:08:41.009Z,953.00
2019-04-03T05:09:41.050Z,952.95
2019-04-03T05:10:40.985Z,952.96
2019-04-03T05:11:40.999Z,952.93
2019-04-03T05:12:44.777Z,952.93
2019-04-03T05:13:41.188Z,952.94
2019-04-03T05:14:41.160Z,952.90
2019-04-03T05:15:40.932Z,953.00
2019-04-03T05:16:41.187Z,952.99
2019-04-03T05:17:40.926Z,953.00
2019-04-03T05:18:40.911Z,953.02
2019-04-03T05:19:40.919Z,953.04
2019-04-03T05:20:40.884Z,953.04
2019-04-03T05:21:40.916Z,953.06
2019-04-03T05:22:41.043Z,953.05
2019-04-03T05:23:40.854Z,953.06
2019-04-03T05:24:40.851Z,952.99
2019-04-03T05:25:41.042Z,953.03
2019-04-03T05:26:40.810Z,953.02
2019-04-03T05:27:40.820Z,953.01
2019-04-03T05:28:53.283Z,952.98
2019-04-03T05:29:40.794Z,952.99
2019-04-03T05:30:40.923Z,952.93
2019-04-03T05:31:40.781Z,953.00
2019-04-03T05:32:41.268Z,952.94
2019-04-03T05:33:42.207Z,953.00
2019-04-03T05:34:43.521Z,952.90
2019-04-03T05:35:40.719Z,952.94
2019-04-03T05:36:40.707Z,952.96
2019-04-03T05:37:40.686Z,952.98
2019-04-03T05:38:40.791Z,953.01
2019-04-03T05:39:40.663Z,952.92
2019-04-03T05:40:40.653Z,952.90
2019-04-03T05:41:40.650Z,952.95
2019-04-03T05:42:40.646Z,952.92
2019-04-03T05:43:40.655Z,952.93
2019-04-03T05:44:40.913Z,952.94
2019-04-03T05:45:41.756Z,952.95
2019-04-03T05:46:40.607Z,952.98
2019-04-03T05:47:40.588Z,952.88
2019-04-03T05:48:40.587Z,952.88
2019-04-03T05:49:40.555Z,952.88
2019-04-03T05:50:40.598Z,952.86
2019-04-03T05:51:40.532Z,952.88
2019-04-03T05:52:40.552Z,952.78
2019-04-03T05:53:40.526Z,952.80
2019-04-03T05:54:40.527Z,952.76
2019-04-03T05:55:41.434Z,952.79
2019-04-03T05:56:42.504Z,952.79
2019-04-03T05:57:40.464Z,952.73
2019-04-03T05:58:40.720Z,952.69
2019-04-03T05:59:43.335Z,952.77
2019-04-03T06:00:40.428Z,952.73
2019-04-03T06:01:42.602Z,952.79
2019-04-03T06:02:40.541Z,952.84
2019-04-03T06:03:44.508Z,952.89
2019-04-03T06:04:41.499Z,952.97
2019-04-03T06:05:41.812Z,952.90
2019-04-03T06:06:40.394Z,952.87
2019-04-03T06:07:40.911Z,952.84
2019-04-03T06:08:40.343Z,952.81
2019-04-03T06:09:40.329Z,952.77
2019-04-03T06:10:40.333Z,952.79
2019-04-03T06:11:41.160Z,952.81
2019-04-03T06:12:40.521Z,952.73
2019-04-03T06:13:40.287Z,952.78
2019-04-03T06:14:40.308Z,952.72
2019-04-03T06:15:40.270Z,952.74
2019-04-03T06:16:40.375Z,952.78
2019-04-03T06:17:40.257Z,952.71
2019-04-03T06:18:40.307Z,952.76
2019-04-03T06:19:40.306Z,952.78
2019-04-03T06:20:42.568Z,952.72
2019-04-03T06:21:40.306Z,952.70
2019-04-03T06:22:40.190Z,952.77
2019-04-03T06:23:40.214Z,952.77
2019-04-03T06:24:40.165Z,952.77
2019-04-03T06:25:40.150Z,952.76
2019-04-03T06:26:40.146Z,952.79
2019-04-03T06:27:42.166Z,952.76
2019-04-03T06:28:42.404Z,952.77
2019-04-03T06:29:40.343Z,952.80
2019-04-03T06:30:40.090Z,952.78
2019-04-03T06:31:40.079Z,952.81
2019-04-03T06:32:40.075Z,952.77
2019-04-03T06:33:40.091Z,952.78
2019-04-03T06:34:42.687Z,952.70
2019-04-03T06:35:40.079Z,952.70
2019-04-03T06:36:40.023Z,952.70
2019-04-03T06:37:40.012Z,952.69
2019-04-03T06:38:40.010Z,952.71
2019-04-03T06:39:40.011Z,952.64
2019-04-03T06:40:40.011Z,952.69
2019-04-03T06:41:41.833Z,952.61
2019-04-03T06:42:39.974Z,952.63
2019-04-03T06:43:39.945Z,952.64
2019-04-03T06:44:39.961Z,952.60
2019-04-03T06:45:42.830Z,952.62
2019-04-03T06:46:40.118Z,952.56
2019-04-03T06:47:40.085Z,952.60
2019-04-03T06:48:39.900Z,952.65
2019-04-03T06:49:41.001Z,952.60
2019-04-03T06:50:40.147Z,952.63
2019-04-03T06:51:40.054Z,952.63
2019-04-03T06:52:39.858Z,952.62
2019-04-03T06:53:39.860Z,952.65
2019-04-03T06:54:39.836Z,952.64
2019-04-03T06:55:40.024Z,952.58
2019-04-03T06:56:41.132Z,952.57
2019-04-03T06:57:40.259Z,952.54
2019-04-03T06:58:40.290Z,952.52
2019-04-03T06:59:39.768Z,952.51
2019-04-03T07:00:39.987Z,952.56
2019-04-03T07:01:39.750Z,952.49
2019-04-03T07:02:39.810Z,952.54
2019-04-03T07:03:39.739Z,952.55
2019-04-03T07:04:39.835Z,952.61
2019-04-03T07:05:41.644Z,952.57
2019-04-03T07:06:39.965Z,952.59
2019-04-03T07:07:39.685Z,952.63
2019-04-03T07:08:41.049Z,952.63
2019-04-03T07:09:39.693Z,952.60
2019-04-03T07:10:40.392Z,952.52
2019-04-03T07:11:39.679Z,952.52
2019-04-03T07:12:39.722Z,952.52
2019-04-03T07:13:39.641Z,952.53
2019-04-03T07:14:39.622Z,952.49
2019-04-03T07:15:39.647Z,952.44
2019-04-03T07:16:39.584Z,952.44
2019-04-03T07:17:39.579Z,952.48
2019-04-03T07:18:39.557Z,952.42
2019-04-03T07:19:40.218Z,952.41
2019-04-03T07:20:39.719Z,952.39
2019-04-03T07:21:39.542Z,952.39
2019-04-03T07:22:39.728Z,952.39
2019-04-03T07:23:39.557Z,952.43
2019-04-03T07:24:39.494Z,952.44
2019-04-03T07:25:39.490Z,952.44
2019-04-03T07:26:39.493Z,952.46
2019-04-03T07:27:41.826Z,952.43
2019-04-03T07:28:41.635Z,952.43
2019-04-03T07:29:39.703Z,952.43
2019-04-03T07:30:39.423Z,952.49
2019-04-03T07:31:39.427Z,952.42
2019-04-03T07:32:39.420Z,952.48
2019-04-03T07:33:39.698Z,952.47
2019-04-03T07:34:39.609Z,952.48
2019-04-03T07:35:40.529Z,952.38
2019-04-03T07:36:41.167Z,952.38
2019-04-03T07:37:39.470Z,952.45
2019-04-03T07:38:39.349Z,952.38
2019-04-03T07:39:39.484Z,952.39
2019-04-03T07:40:39.313Z,952.35
2019-04-03T07:41:41.051Z,952.38
2019-04-03T07:42:39.292Z,952.36
2019-04-03T07:43:39.287Z,952.35
2019-04-03T07:44:39.435Z,952.35
2019-04-03T07:45:39.294Z,952.37
2019-04-03T07:46:39.246Z,952.35
2019-04-03T07:47:39.234Z,952.35
2019-04-03T07:48:39.339Z,952.34
2019-04-03T07:49:40.123Z,952.32
2019-04-03T07:50:41.069Z,952.34
2019-04-03T07:51:39.234Z,952.33
2019-04-03T07:52:39.191Z,952.26
2019-04-03T07:53:39.168Z,952.27
2019-04-03T07:54:39.249Z,952.29
2019-04-03T07:55:39.157Z,952.24
2019-04-03T07:56:39.155Z,952.25
2019-04-03T07:57:41.012Z,952.26
2019-04-03T07:58:39.127Z,952.17
2019-04-03T07:59:39.319Z,952.14
2019-04-03T08:00:39.266Z,952.13
2019-04-03T08:01:41.299Z,952.13
2019-04-03T08:02:39.216Z,952.17
2019-04-03T08:03:39.186Z,952.12
2019-04-03T08:04:39.046Z,952.14
2019-04-03T08:05:39.045Z,952.24
2019-04-03T08:06:39.370Z,952.24
2019-04-03T08:07:39.312Z,952.24
2019-04-03T08:08:39.534Z,952.25
2019-04-03T08:09:38.994Z,952.27
2019-04-03T08:10:38.990Z,952.29
2019-04-03T08:11:38.968Z,952.28
2019-04-03T08:12:38.975Z,952.26
2019-04-03T08:13:39.198Z,952.24
2019-04-03T08:14:40.480Z,952.23
2019-04-03T08:15:38.923Z,952.19
2019-04-03T08:16:41.953Z,952.21
2019-04-03T08:17:39.173Z,952.22
2019-04-03T08:18:38.895Z,952.12
2019-04-03T08:19:39.068Z,952.18
2019-04-03T08:20:38.869Z,952.15
2019-04-03T08:21:38.857Z,952.14
2019-04-03T08:22:39.111Z,952.11
2019-04-03T08:23:39.176Z,952.16
2019-04-03T08:24:39.699Z,952.08
2019-04-03T08:25:38.834Z,952.12
2019-04-03T08:26:39.152Z,952.12
2019-04-03T08:27:39.209Z,952.14
2019-04-03T08:28:38.799Z,952.05
2019-04-03T08:29:39.367Z,952.09
2019-04-03T08:30:39.680Z,952.10
2019-04-03T08:31:38.767Z,952.05
2019-04-03T08:32:38.738Z,952.07
2019-04-03T08:33:38.722Z,952.01
2019-04-03T08:34:38.761Z,952.02
2019-04-03T08:35:38.721Z,951.97
2019-04-03T08:36:39.805Z,951.94
2019-04-03T08:37:41.169Z,951.97
2019-04-03T08:38:38.732Z,951.93
2019-04-03T08:39:38.678Z,952.00
2019-04-03T08:40:38.654Z,951.94
2019-04-03T08:41:38.873Z,951.92
2019-04-03T08:42:38.652Z,951.90
2019-04-03T08:43:38.941Z,951.94
2019-04-03T08:44:38.791Z,951.93
2019-04-03T08:45:39.282Z,951.99
2019-04-03T08:46:38.726Z,951.89
2019-04-03T08:47:38.614Z,951.88
2019-04-03T08:48:38.573Z,951.86
2019-04-03T08:49:39.137Z,951.91
2019-04-03T08:50:38.702Z,951.87
2019-04-03T08:51:38.522Z,951.89
2019-04-03T08:52:38.562Z,951.88
2019-04-03T08:53:39.675Z,951.86
2019-04-03T08:54:41.258Z,951.89
2019-04-03T08:55:38.828Z,951.84
2019-04-03T08:56:38.471Z,951.85
2019-04-03T08:57:38.718Z,951.78
2019-04-03T08:58:38.459Z,951.79
2019-04-03T08:59:38.445Z,951.78
2019-04-03T09:00:38.452Z,951.77
2019-04-03T09:01:39.630Z,951.77
2019-04-03T09:02:38.398Z,951.71
2019-04-03T09:03:38.662Z,951.72
2019-04-03T09:04:38.403Z,951.71
2019-04-03T09:05:38.388Z,951.72
2019-04-03T09:06:38.424Z,951.71
2019-04-03T09:07:38.400Z,951.75
2019-04-03T09:08:38.335Z,951.68
2019-04-03T09:09:38.394Z,951.68
2019-04-03T09:10:38.321Z,951.68
2019-04-03T09:11:38.323Z,951.67
2019-04-03T09:12:38.945Z,951.72
2019-04-03T09:13:38.275Z,951.69
2019-04-03T09:14:38.293Z,951.64
2019-04-03T09:15:38.484Z,951.65
2019-04-03T09:16:38.259Z,951.67
2019-04-03T09:17:38.258Z,951.67
2019-04-03T09:18:38.721Z,951.60
2019-04-03T09:19:40.618Z,951.63
2019-04-03T09:20:38.196Z,951.63
2019-04-03T09:21:39.141Z,951.57
2019-04-03T09:22:38.191Z,951.58
2019-04-03T09:23:38.162Z,951.56
2019-04-03T09:24:38.189Z,951.56
2019-04-03T09:25:38.183Z,951.54
2019-04-03T09:26:38.313Z,951.51
2019-04-03T09:27:40.364Z,951.49
2019-04-03T09:28:41.113Z,951.49
2019-04-03T09:29:38.089Z,951.47
2019-04-03T09:30:38.090Z,951.53
2019-04-03T09:31:38.079Z,951.46
2019-04-03T09:32:38.063Z,951.48
2019-04-03T09:33:38.054Z,951.46
2019-04-03T09:34:38.142Z,951.44
2019-04-03T09:35:38.065Z,951.45
2019-04-03T09:36:38.016Z,951.40
2019-04-03T09:37:38.472Z,951.40
2019-04-03T09:38:40.613Z,951.33
2019-04-03T09:39:38.000Z,951.29
2019-04-03T09:40:38.323Z,951.28
2019-04-03T09:41:38.002Z,951.33
2019-04-03T09:42:37.950Z,951.34
2019-04-03T09:43:39.924Z,951.29
2019-04-03T09:44:37.931Z,951.25
2019-04-03T09:45:37.958Z,951.23
2019-04-03T09:46:37.924Z,951.23
2019-04-03T09:47:37.891Z,951.21
2019-04-03T09:48:38.019Z,951.25
2019-04-03T09:49:40.199Z,951.14
2019-04-03T09:50:37.886Z,951.12
2019-04-03T09:51:38.124Z,951.14
2019-04-03T09:52:46.097Z,951.14
2019-04-03T09:53:38.849Z,951.12
2019-04-03T09:54:37.818Z,951.09
2019-04-03T09:55:38.265Z,951.12
2019-04-03T09:56:54.880Z,951.07
2019-04-03T09:57:37.795Z,951.10
2019-04-03T09:58:37.770Z,951.06
2019-04-03T09:59:38.551Z,951.10
2019-04-03T10:00:37.743Z,951.08
2019-04-03T10:01:37.744Z,951.06
2019-04-03T10:02:37.796Z,951.09
2019-04-03T10:03:37.721Z,950.99
2019-04-03T10:04:37.699Z,950.99
2019-04-03T10:05:37.692Z,951.01
2019-04-03T10:06:37.679Z,950.98
2019-04-03T10:07:37.709Z,950.96
2019-04-03T10:08:38.052Z,951.04
2019-04-03T10:09:39.057Z,950.96
2019-04-03T10:10:37.977Z,950.94
2019-04-03T10:11:39.231Z,950.86
2019-04-03T10:12:37.980Z,950.80
2019-04-03T10:13:37.638Z,950.84
2019-04-03T10:14:37.606Z,950.78
2019-04-03T10:15:37.603Z,950.77
2019-04-03T10:16:37.601Z,950.77
2019-04-03T10:17:38.600Z,950.73
2019-04-03T10:18:39.078Z,950.77
2019-04-03T10:19:37.748Z,950.78
2019-04-03T10:20:37.720Z,950.73
2019-04-03T10:21:37.537Z,950.72
2019-04-03T10:22:37.536Z,950.68
2019-04-03T10:23:37.583Z,950.62
2019-04-03T10:24:37.555Z,950.64
2019-04-03T10:25:38.041Z,950.61
2019-04-03T10:26:39.458Z,950.62
2019-04-03T10:27:37.443Z,950.62
2019-04-03T10:28:37.765Z,950.64
2019-04-03T10:29:37.641Z,950.63
2019-04-03T10:30:37.409Z,950.64
2019-04-03T10:31:37.399Z,950.61
2019-04-03T10:32:37.397Z,950.68
2019-04-03T10:33:37.473Z,950.66
2019-04-03T10:34:37.379Z,950.62
2019-04-03T10:35:39.296Z,950.60
2019-04-03T10:36:37.440Z,950.59
2019-04-03T10:37:37.339Z,950.57
2019-04-03T10:38:37.372Z,950.54
2019-04-03T10:39:40.065Z,950.53
2019-04-03T10:40:37.568Z,950.54
2019-04-03T10:41:37.287Z,950.52
2019-04-03T10:42:37.274Z,950.49
2019-04-03T10:43:37.708Z,950.48
2019-04-03T10:44:37.271Z,950.49
2019-04-03T10:45:37.239Z,950.46
2019-04-03T10:46:37.234Z,950.53
2019-04-03T10:47:42.419Z,950.50
2019-04-03T10:48:37.211Z,950.43
2019-04-03T10:49:37.231Z,950.41
2019-04-03T10:50:38.275Z,950.44
2019-04-03T10:51:37.428Z,950.39
2019-04-03T10:52:37.164Z,950.35
2019-04-03T10:53:37.152Z,950.37
2019-04-03T10:54:38.430Z,950.34
2019-04-03T10:55:37.159Z,950.34
2019-04-03T10:56:37.175Z,950.32
2019-04-03T10:57:37.189Z,950.29
2019-04-03T10:58:38.432Z,950.27
2019-04-03T10:59:37.087Z,950.22
2019-04-03T11:00:37.089Z,950.18
2019-04-03T11:01:37.092Z,950.22
2019-04-03T11:02:37.092Z,950.13
2019-04-03T11:03:37.038Z,950.05
2019-04-03T11:04:37.316Z,950.09
2019-04-03T11:05:37.233Z,950.06
2019-04-03T11:06:37.864Z,950.06
2019-04-03T11:07:37.032Z,950.06
2019-04-03T11:08:37.030Z,950.04
2019-04-03T11:09:36.971Z,950.03
2019-04-03T11:10:36.962Z,950.00
2019-04-03T11:11:37.694Z,950.04
2019-04-03T11:12:36.961Z,950.01
2019-04-03T11:13:37.009Z,949.98
2019-04-03T11:14:39.005Z,949.94
2019-04-03T11:15:36.902Z,949.96
2019-04-03T11:16:38.925Z,949.88
2019-04-03T11:17:37.372Z,949.92
2019-04-03T11:18:37.193Z,949.90
2019-04-03T11:19:37.413Z,949.89
2019-04-03T11:20:37.218Z,949.91
2019-04-03T11:21:36.841Z,949.85
2019-04-03T11:22:40.384Z,949.87
2019-04-03T11:23:43.524Z,949.85
2019-04-03T11:24:39.760Z,949.79
2019-04-03T11:25:36.836Z,949.75
2019-04-03T11:26:37.203Z,949.73
2019-04-03T11:27:45.606Z,949.73
2019-04-03T11:28:38.629Z,949.71
2019-04-03T11:29:36.795Z,949.67
2019-04-03T11:30:36.762Z,949.68
2019-04-03T11:31:41.482Z,949.63
2019-04-03T11:32:36.786Z,949.65
2019-04-03T11:33:36.708Z,949.64
2019-04-03T11:34:36.811Z,949.59
2019-04-03T11:35:37.114Z,949.56
2019-04-03T11:36:37.004Z,949.64
2019-04-03T11:37:36.717Z,949.53
2019-04-03T11:38:36.713Z,949.53
2019-04-03T11:39:37.533Z,949.57
2019-04-03T11:40:36.801Z,949.52
2019-04-03T11:41:36.690Z,949.52
2019-04-03T11:42:36.648Z,949.53
2019-04-03T11:43:36.957Z,949.51
2019-04-03T11:44:37.070Z,949.49
2019-04-03T11:45:36.596Z,949.44
2019-04-03T11:46:36.618Z,949.41
2019-04-03T11:47:37.037Z,949.46
2019-04-03T11:48:36.826Z,949.40
2019-04-03T11:49:36.587Z,949.39
2019-04-03T11:50:38.893Z,949.36
2019-04-03T11:51:36.526Z,949.41
2019-04-03T11:52:36.505Z,949.40
2019-04-03T11:53:36.861Z,949.38
2019-04-03T11:54:37.007Z,949.41
2019-04-03T11:55:36.762Z,949.36
2019-04-03T11:56:36.450Z,949.35
2019-04-03T11:57:36.436Z,949.33
2019-04-03T11:58:36.721Z,949.28
2019-04-03T11:59:36.431Z,949.30
2019-04-03T12:00:36.427Z,949.22
2019-04-03T12:01:36.447Z,949.26
2019-04-03T12:02:38.298Z,949.15
2019-04-03T12:03:36.446Z,949.19
2019-04-03T12:04:36.379Z,949.18
2019-04-03T12:05:36.366Z,949.16
2019-04-03T12:06:36.423Z,949.14
2019-04-03T12:07:36.328Z,949.11
2019-04-03T12:08:36.339Z,949.07
2019-04-03T12:09:36.343Z,949.11
2019-04-03T12:10:36.312Z,949.05
2019-04-03T12:11:38.415Z,949.05
2019-04-03T12:12:36.269Z,949.00
2019-04-03T12:13:36.548Z,948.97
2019-04-03T12:14:36.251Z,948.99
2019-04-03T12:15:36.255Z,948.96
2019-04-03T12:16:36.244Z,948.92
2019-04-03T12:17:36.226Z,948.89
2019-04-03T12:18:36.233Z,948.87
2019-04-03T12:19:37.128Z,948.82
2019-04-03T12:20:36.444Z,948.80
2019-04-03T12:21:36.174Z,948.77
2019-04-03T12:22:36.295Z,948.75
2019-04-03T12:23:38.783Z,948.71
2019-04-03T12:24:36.266Z,948.70
2019-04-03T12:25:38.195Z,948.71
2019-04-03T12:26:36.116Z,948.67
2019-04-03T12:27:36.713Z,948.68
2019-04-03T12:28:36.276Z,948.71